Cincinnati Northern Kentucky International Airport
KCVG : rendu visible

Aérodrome :











RETROUVEZ-NOUS SUR...

 
LOGIN :

S'inscrire | Disclaimer

   EN    FR    IT 

 









Légende :    VFR   VFR Marginal   IFR   IFR Intensif   IFR Très Intensif
Visi : 
Plafond : 
>= 8 km
>= 3000ft
5 à 8 km
1000 à 3000 ft
1500m à 5 km
500 à 1000 ft
800 à 1500m
200 à 500 ft
< 800m
< 200 ft
Symboles :   Orages  Brouillard  Fortes neiges  Fortes précipitations  Vent > 20 kt






- Altitude de l'aérodrome : 896 ft
- Code IATA : CVG


KCVG - Cincinnati Northern Kentucky International

DERNIER METAR :
  • 010552Z 33009KT 9SM BKN012 OVC022 06/03 A2990 RMK AO2 SLP126 60000 T00560028 10072 20056 50001

METARs EXPIRÉS :
  • 010452Z 33009KT 10SM BKN014 BKN019 OVC055 06/03 A2990 RMK AO2 SLP126 T00560028 400830050
  • 010352Z 34009KT 8SM SCT017 BKN025 OVC036 06/03 A2990 RMK AO2 SLP127 DZB06E47 P0000 T00560028
  • 010252Z 34010KT 10SM BKN017 BKN022 OVC034 06/02 A2990 RMK AO2 RAB0155E05DZB32E49 SLP126 P0000 60000 T00560022 51010

TAF KCVG
Valide du 01 à 06h jusqu'au 02 à 12h UTC


010520Z 0106/0212 34008KT P6SM VCSH OVC018
FM010900 34006KT P6SM OVC015
FM011500 35008KT P6SM SCT025 BKN035
FM020000 35004KT P6SM SCT050



MET'MAP, la Météo Aéronautique d'un coup d'oeil ! - Copyright ORBIFLY Décembre 2007 - Disclaimer

ORBIFLY MET'MAP TEAM :

Programmation & Développement : Alexandra Zaïnal
Sur une idée originale de : Baudouin d'Aumeries
Assistance à la programmation : Marc-Olivier Méhu
Soutien technique & logistique : Manuel Goepfert

Contact : metmap@orbifly.com




SOURCES & CREDITS :

   NOAA       Earth
Advisory